Time;durP1;ratioP1;P1;durP2;ratioP2;P2;SDS_P1;SDS_P2;PMS_P1;PMS_P2;Temp;Humidity;BMP_temperature;BMP_pressure;BME280_temperature;BME280_humidity;BME280_pressure;Samples;Min_cycle;Max_cycle;Signal;HPM_P1;HPM_P2
2021/09/05 00:00:53;;;;;;;;;;;13.70;99.90;;;;;;1872254;76;20185;-74
2021/09/05 00:03:20;;;;;;;;;;;13.70;99.90;;;;;;1880745;76;20200;-74
2021/09/05 00:05:47;;;;;;;;;;;13.70;99.90;;;;;;1862359;77;20118;-74
2021/09/05 00:08:14;;;;;;;;;;;13.70;99.90;;;;;;1874171;76;20446;-74
2021/09/05 00:10:40;;;;;;;;;;;13.70;99.90;;;;;;1885569;76;20298;-74
2021/09/05 00:13:07;;;;;;;;;;;13.70;99.90;;;;;;1878601;76;20559;-74
2021/09/05 00:15:34;;;;;;;;;;;13.50;99.90;;;;;;1869921;76;20212;-74
2021/09/05 00:18:01;;;;;;;;;;;13.50;99.90;;;;;;1862208;76;20380;-74
2021/09/05 00:20:28;;;;;;;;;;;13.60;99.90;;;;;;1882385;76;20169;-75
2021/09/05 00:22:54;;;;;;;;;;;13.50;99.90;;;;;;1874578;76;20491;-74
2021/09/05 00:25:21;;;;;;;;;;;13.60;99.90;;;;;;1862152;76;20126;-75
2021/09/05 00:27:48;;;;;;;;;;;13.60;99.90;;;;;;1874605;76;20463;-76
2021/09/05 00:30:15;;;;;;;;;;;13.70;99.90;;;;;;1890520;76;20228;-76
2021/09/05 00:32:41;;;;;;;;;;;13.50;99.90;;;;;;1892017;76;20112;-75
2021/09/05 00:35:09;;;;;;;;;;;13.40;99.90;;;;;;1892384;76;20163;-75
2021/09/05 00:37:35;;;;;;;;;;;13.40;99.90;;;;;;1886987;76;20175;-76
2021/09/05 00:40:02;;;;;;;;;;;13.40;99.90;;;;;;1865366;76;20491;-76
2021/09/05 00:42:29;;;;;;;;;;;13.30;99.90;;;;;;1882066;74;20722;-75
2021/09/05 00:44:56;;;;;;;;;;;13.30;99.90;;;;;;1871018;74;20123;-75
2021/09/05 00:47:23;;;;;;;;;;;13.30;99.90;;;;;;1884190;76;20171;-74
2021/09/05 00:49:49;;;;;;;;;;;13.20;99.90;;;;;;1873158;76;20130;-74
2021/09/05 00:52:18;;;;;;;;;;;13.00;99.90;;;;;;1861944;77;20204;-75
2021/09/05 00:54:45;;;;;;;;;;;13.00;99.90;;;;;;1862344;77;20215;-74
2021/09/05 00:57:13;;;;;;;;;;;13.00;99.90;;;;;;1865683;76;20220;-74
2021/09/05 00:59:41;;;;;;;;;;;13.00;99.90;;;;;;1874193;76;20182;-75
2021/09/05 01:02:09;;;;;;;;;;;13.10;99.90;;;;;;1876450;76;20114;-75
2021/09/05 01:04:36;;;;;;;;;;;13.00;99.90;;;;;;1880701;76;20232;-74
2021/09/05 01:07:02;;;;;;;;;;;13.00;99.90;;;;;;1882481;76;20137;-74
2021/09/05 01:09:30;;;;;;;;;;;13.00;99.90;;;;;;1862151;76;20185;-75
2021/09/05 01:11:57;;;;;;;;;;;13.00;99.90;;;;;;1882258;76;20108;-76
2021/09/05 01:14:25;;;;;;;;;;;12.90;99.90;;;;;;1893949;76;20240;-75
2021/09/05 01:16:52;;;;;;;;;;;12.80;99.90;;;;;;1891410;76;20261;-75
2021/09/05 01:19:22;;;;;;;;;;;12.80;99.90;;;;;;1884227;76;20129;-76
2021/09/05 01:21:50;;;;;;;;;;;12.80;99.90;;;;;;1861938;76;20156;-75
2021/09/05 01:24:17;;;;;;;;;;;12.70;99.90;;;;;;1880106;76;20159;-75
2021/09/05 01:26:46;;;;;;;;;;;12.80;99.90;;;;;;1892634;76;20224;-75
2021/09/05 01:29:14;;;;;;;;;;;12.70;99.90;;;;;;1877542;76;20174;-75
2021/09/05 01:31:45;;;;;;;;;;;12.70;99.90;;;;;;1888564;76;20160;-74
2021/09/05 01:34:13;;;;;;;;;;;12.70;99.90;;;;;;1871019;76;20205;-75
2021/09/05 01:36:40;;;;;;;;;;;12.60;99.90;;;;;;1892611;76;20194;-75
2021/09/05 01:39:08;;;;;;;;;;;12.80;99.90;;;;;;1864833;75;20233;-75
2021/09/05 01:41:35;;;;;;;;;;;12.60;99.90;;;;;;1862117;76;20173;-75
2021/09/05 01:44:04;;;;;;;;;;;12.60;99.90;;;;;;1862600;76;20180;-75
2021/09/05 01:46:30;;;;;;;;;;;12.60;99.90;;;;;;1876014;76;20169;-74
2021/09/05 01:48:57;;;;;;;;;;;12.50;99.90;;;;;;1871060;76;20407;-74
2021/09/05 01:51:24;;;;;;;;;;;12.60;99.90;;;;;;1893872;76;20178;-74
2021/09/05 01:53:51;;;;;;;;;;;12.50;99.90;;;;;;1893238;76;20163;-73
2021/09/05 01:56:18;;;;;;;;;;;12.60;99.90;;;;;;1869580;76;20489;-74
2021/09/05 01:58:45;;;;;;;;;;;12.60;99.90;;;;;;1879567;76;20175;-75
2021/09/05 02:01:11;;;;;;;;;;;12.50;99.90;;;;;;1865045;76;20126;-77
2021/09/05 02:03:38;;;;;;;;;;;12.60;99.90;;;;;;1879998;74;20184;-75
2021/09/05 02:06:05;;;;;;;;;;;12.60;99.90;;;;;;1922593;74;20218;-74
2021/09/05 02:08:32;;;;;;;;;;;12.60;99.90;;;;;;1892132;76;20128;-75
2021/09/05 02:10:59;;;;;;;;;;;12.60;99.90;;;;;;1893362;76;20178;-74
2021/09/05 02:13:25;;;;;;;;;;;12.60;99.90;;;;;;1892563;76;20158;-75
2021/09/05 02:15:52;;;;;;;;;;;12.60;99.90;;;;;;1863078;76;20129;-75
2021/09/05 02:18:19;;;;;;;;;;;12.60;99.90;;;;;;1875696;76;20482;-75
2021/09/05 02:20:46;;;;;;;;;;;12.50;99.90;;;;;;1862257;76;20153;-75
2021/09/05 02:23:13;;;;;;;;;;;12.60;99.90;;;;;;1862981;76;20288;-75
2021/09/05 02:25:40;;;;;;;;;;;12.60;99.90;;;;;;1862354;76;20530;-76
2021/09/05 02:28:07;;;;;;;;;;;12.50;99.90;;;;;;1870517;76;20150;-76
2021/09/05 02:30:38;;;;;;;;;;;12.50;99.90;;;;;;1892318;76;20175;-76
2021/09/05 02:33:03;;;;;;;;;;;12.50;99.90;;;;;;1861452;76;20478;-76
2021/09/05 02:35:30;;;;;;;;;;;12.50;99.90;;;;;;1862343;76;20443;-75
2021/09/05 02:37:57;;;;;;;;;;;12.40;99.90;;;;;;1850215;77;20127;-75
2021/09/05 02:40:24;;;;;;;;;;;12.40;99.90;;;;;;1852137;76;20299;-75
2021/09/05 02:42:51;;;;;;;;;;;12.50;99.90;;;;;;1886360;75;20128;-76
2021/09/05 02:45:18;;;;;;;;;;;12.40;99.90;;;;;;1892996;75;20511;-75
2021/09/05 02:47:44;;;;;;;;;;;12.40;99.90;;;;;;1852962;76;20432;-75
2021/09/05 02:50:11;;;;;;;;;;;12.50;99.90;;;;;;1881453;76;20229;-74
2021/09/05 02:52:38;;;;;;;;;;;12.40;99.90;;;;;;1880194;76;20441;-75
2021/09/05 02:55:05;;;;;;;;;;;12.30;99.90;;;;;;1851179;76;20173;-75
2021/09/05 02:57:32;;;;;;;;;;;12.40;99.90;;;;;;1852543;76;20178;-75
2021/09/05 02:59:59;;;;;;;;;;;12.20;99.90;;;;;;1867180;76;20177;-76
2021/09/05 03:02:28;;;;;;;;;;;12.20;99.90;;;;;;1865479;76;20327;-75
2021/09/05 03:04:55;;;;;;;;;;;12.30;99.90;;;;;;1861937;76;20432;-75
2021/09/05 03:07:22;;;;;;;;;;;12.30;99.90;;;;;;1872907;76;20190;-75
2021/09/05 03:09:49;;;;;;;;;;;12.10;99.90;;;;;;1853089;76;20521;-75
2021/09/05 03:12:16;;;;;;;;;;;12.10;99.90;;;;;;1850351;76;20134;-75
2021/09/05 03:14:42;;;;;;;;;;;12.10;99.90;;;;;;1850599;76;20177;-76
2021/09/05 03:17:09;;;;;;;;;;;12.10;99.90;;;;;;1850161;77;20423;-74
2021/09/05 03:19:36;;;;;;;;;;;12.00;99.90;;;;;;1879660;76;20155;-74
2021/09/05 03:22:03;;;;;;;;;;;11.90;99.90;;;;;;1875125;76;20433;-74
2021/09/05 03:24:30;;;;;;;;;;;11.80;99.90;;;;;;1859520;76;20233;-74
2021/09/05 03:26:56;;;;;;;;;;;11.90;99.90;;;;;;1854960;76;20224;-75
2021/09/05 03:29:23;;;;;;;;;;;11.80;99.90;;;;;;1880361;76;20179;-75
2021/09/05 03:31:50;;;;;;;;;;;12.10;99.90;;;;;;1858858;76;20185;-75
2021/09/05 03:34:17;;;;;;;;;;;12.20;99.90;;;;;;1850084;76;20424;-74
2021/09/05 03:36:44;;;;;;;;;;;12.30;99.90;;;;;;1855848;76;20126;-75
2021/09/05 03:39:10;;;;;;;;;;;12.20;99.90;;;;;;1850341;77;20432;-75
2021/09/05 03:41:37;;;;;;;;;;;12.30;99.90;;;;;;1853270;76;20169;-75
2021/09/05 03:44:04;;;;;;;;;;;12.40;99.90;;;;;;1864810;76;20454;-75
2021/09/05 03:46:31;;;;;;;;;;;12.40;99.90;;;;;;1876326;76;20217;-75
2021/09/05 03:48:57;;;;;;;;;;;12.40;99.90;;;;;;1857839;76;20181;-76
2021/09/05 03:51:24;;;;;;;;;;;12.60;99.90;;;;;;1868661;75;20173;-75
2021/09/05 03:53:51;;;;;;;;;;;12.80;99.90;;;;;;1850223;77;20170;-75
2021/09/05 03:56:18;;;;;;;;;;;13.00;99.90;;;;;;1850187;76;20178;-76
2021/09/05 03:58:45;;;;;;;;;;;13.20;99.90;;;;;;1870260;76;20216;-76
2021/09/05 04:01:12;;;;;;;;;;;13.20;99.90;;;;;;1870841;75;20435;-76
2021/09/05 04:03:38;;;;;;;;;;;13.20;99.90;;;;;;1850562;76;20177;-77
2021/09/05 04:06:05;;;;;;;;;;;13.30;99.90;;;;;;1870617;76;20189;-76
2021/09/05 04:08:39;;;;;;;;;;;13.30;99.90;;;;;;1877175;75;20214;-76
2021/09/05 04:11:02;;;;;;;;;;;13.30;99.90;;;;;;1863502;76;20179;-76
2021/09/05 04:13:31;;;;;;;;;;;13.40;99.90;;;;;;1877370;76;20425;-76
2021/09/05 04:15:58;;;;;;;;;;;13.40;99.90;;;;;;1872431;76;20464;-76
2021/09/05 04:18:25;;;;;;;;;;;13.40;99.90;;;;;;1850089;76;20204;-76
2021/09/05 04:20:52;;;;;;;;;;;13.40;99.90;;;;;;1850416;77;20169;-76
2021/09/05 04:23:19;;;;;;;;;;;13.40;99.90;;;;;;1850271;76;20409;-77
2021/09/05 04:25:46;;;;;;;;;;;13.40;99.90;;;;;;1863835;76;20164;-77
2021/09/05 04:28:13;;;;;;;;;;;13.40;99.90;;;;;;1855575;76;20201;-77
2021/09/05 04:30:39;;;;;;;;;;;13.50;99.90;;;;;;1879741;76;20120;-76
2021/09/05 04:33:06;;;;;;;;;;;13.60;99.90;;;;;;1869785;76;20185;-75
2021/09/05 04:35:33;;;;;;;;;;;13.50;99.90;;;;;;1879600;76;20464;-75
2021/09/05 04:38:00;;;;;;;;;;;13.50;99.90;;;;;;1881943;76;20124;-74
2021/09/05 04:40:27;;;;;;;;;;;13.50;99.90;;;;;;1857962;76;20470;-73
2021/09/05 04:42:53;;;;;;;;;;;13.50;99.90;;;;;;1870034;76;20374;-74
2021/09/05 04:45:20;;;;;;;;;;;13.60;99.90;;;;;;1877480;76;20172;-74
2021/09/05 04:47:47;;;;;;;;;;;13.60;99.90;;;;;;1856453;76;20435;-74
2021/09/05 04:50:14;;;;;;;;;;;13.60;99.90;;;;;;1850239;77;20131;-75
2021/09/05 04:52:41;;;;;;;;;;;13.50;99.90;;;;;;1876590;75;20183;-75
2021/09/05 04:55:08;;;;;;;;;;;13.50;99.90;;;;;;1881872;76;20132;-74
2021/09/05 04:57:35;;;;;;;;;;;13.60;99.90;;;;;;1862004;76;20208;-75
2021/09/05 05:00:01;;;;;;;;;;;13.60;99.90;;;;;;1871920;76;20202;-75
2021/09/05 05:02:32;;;;;;;;;;;13.40;99.90;;;;;;1857968;76;20163;-75
2021/09/05 05:04:58;;;;;;;;;;;13.50;99.90;;;;;;1876166;76;20159;-75
2021/09/05 05:07:25;;;;;;;;;;;13.50;99.90;;;;;;1850264;77;20157;-74
2021/09/05 05:09:54;;;;;;;;;;;13.60;99.90;;;;;;1875762;76;20287;-75
2021/09/05 05:12:20;;;;;;;;;;;13.50;99.90;;;;;;1871264;76;20145;-74
2021/09/05 05:14:47;;;;;;;;;;;13.40;99.90;;;;;;1855149;76;20217;-74
2021/09/05 05:17:14;;;;;;;;;;;13.40;99.90;;;;;;1850221;77;20181;-75
2021/09/05 05:19:40;;;;;;;;;;;13.50;99.90;;;;;;1849938;76;20396;-75
2021/09/05 05:22:07;;;;;;;;;;;13.50;99.90;;;;;;1850386;77;20173;-74
2021/09/05 05:24:34;;;;;;;;;;;13.50;99.90;;;;;;1850210;76;20169;-75
2021/09/05 05:27:01;;;;;;;;;;;13.50;99.90;;;;;;1850444;77;20157;-75
2021/09/05 05:29:28;;;;;;;;;;;13.50;99.90;;;;;;1854336;76;20291;-75
2021/09/05 05:31:54;;;;;;;;;;;13.50;99.90;;;;;;1865096;76;20390;-75
2021/09/05 05:34:21;;;;;;;;;;;13.50;99.90;;;;;;1881454;75;20172;-74
2021/09/05 05:36:48;;;;;;;;;;;13.40;99.90;;;;;;1866624;76;20431;-75
2021/09/05 05:39:15;;;;;;;;;;;13.50;99.90;;;;;;1850227;77;20115;-75
2021/09/05 05:41:42;;;;;;;;;;;13.50;99.90;;;;;;1850094;76;20245;-74
2021/09/05 05:44:08;;;;;;;;;;;13.50;99.90;;;;;;1855869;76;20174;-74
2021/09/05 05:46:36;;;;;;;;;;;13.50;99.90;;;;;;1850208;76;20213;-74
2021/09/05 05:49:02;;;;;;;;;;;13.40;99.90;;;;;;1850224;77;20474;-74
2021/09/05 05:51:29;;;;;;;;;;;13.40;99.90;;;;;;1851684;76;20135;-74
2021/09/05 05:53:57;;;;;;;;;;;13.40;99.90;;;;;;1878722;76;20209;-73
2021/09/05 05:56:24;;;;;;;;;;;13.40;99.90;;;;;;1856159;76;20121;-73
2021/09/05 05:58:50;;;;;;;;;;;13.40;99.90;;;;;;1864179;76;20210;-73
2021/09/05 06:01:17;;;;;;;;;;;13.40;99.90;;;;;;1856012;76;20142;-74
2021/09/05 06:03:44;;;;;;;;;;;13.40;99.90;;;;;;1875924;76;20151;-73
2021/09/05 06:06:11;;;;;;;;;;;13.40;99.90;;;;;;1881745;76;20218;-75
2021/09/05 06:08:38;;;;;;;;;;;13.50;99.90;;;;;;1854312;75;20157;-75
2021/09/05 06:11:04;;;;;;;;;;;13.40;99.90;;;;;;1850338;77;20565;-74
2021/09/05 06:13:31;;;;;;;;;;;13.30;99.90;;;;;;1859992;76;20260;-75
2021/09/05 06:15:58;;;;;;;;;;;13.40;99.90;;;;;;1881636;76;20424;-74
2021/09/05 06:18:25;;;;;;;;;;;13.40;99.90;;;;;;1862085;76;20189;-74
2021/09/05 06:20:52;;;;;;;;;;;13.50;99.90;;;;;;1871632;76;20401;-75
2021/09/05 06:23:19;;;;;;;;;;;13.50;99.90;;;;;;1881765;76;20205;-75
2021/09/05 06:25:46;;;;;;;;;;;13.50;99.90;;;;;;1857217;76;20204;-75
2021/09/05 06:28:12;;;;;;;;;;;13.50;99.90;;;;;;1873074;76;20120;-76
2021/09/05 06:30:39;;;;;;;;;;;13.50;99.90;;;;;;1857518;76;20174;-76
2021/09/05 06:33:11;;;;;;;;;;;13.50;99.90;;;;;;1858849;76;20402;-75
2021/09/05 06:35:35;;;;;;;;;;;13.40;99.90;;;;;;1878082;76;20116;-74
2021/09/05 06:38:01;;;;;;;;;;;13.50;99.90;;;;;;1851611;76;20206;-74
2021/09/05 06:40:28;;;;;;;;;;;13.50;99.90;;;;;;1850442;76;20392;-74
2021/09/05 06:42:55;;;;;;;;;;;13.60;99.90;;;;;;1880387;76;20156;-74
2021/09/05 06:45:22;;;;;;;;;;;13.50;99.90;;;;;;1852160;76;20178;-73
2021/09/05 06:47:49;;;;;;;;;;;13.50;99.90;;;;;;1869115;75;20132;-74
2021/09/05 06:50:15;;;;;;;;;;;13.50;99.90;;;;;;1874104;77;20157;-74
2021/09/05 06:52:42;;;;;;;;;;;13.50;99.90;;;;;;1859927;76;20182;-73
2021/09/05 06:55:09;;;;;;;;;;;13.50;99.90;;;;;;1850572;76;20169;-74
2021/09/05 06:57:36;;;;;;;;;;;13.60;99.90;;;;;;1852610;76;20504;-75
2021/09/05 07:00:04;;;;;;;;;;;13.50;99.90;;;;;;1850292;77;20138;-76
2021/09/05 07:02:31;;;;;;;;;;;13.50;99.90;;;;;;1870746;76;20235;-76
2021/09/05 07:04:58;;;;;;;;;;;13.60;99.90;;;;;;1877458;76;20221;-76
2021/09/05 07:07:24;;;;;;;;;;;13.60;99.90;;;;;;1855473;76;20186;-77
2021/09/05 07:09:51;;;;;;;;;;;13.50;99.90;;;;;;1866074;76;20401;-75
2021/09/05 07:12:18;;;;;;;;;;;13.50;99.90;;;;;;1871633;76;20198;-76
2021/09/05 07:14:45;;;;;;;;;;;13.50;99.90;;;;;;1856925;76;20178;-76
2021/09/05 07:17:12;;;;;;;;;;;13.50;99.90;;;;;;1849985;76;20161;-76
2021/09/05 07:19:44;;;;;;;;;;;13.50;99.90;;;;;;1873418;76;20118;-72
2021/09/05 07:22:08;;;;;;;;;;;13.60;99.90;;;;;;1860207;76;20149;-72
2021/09/05 07:24:34;;;;;;;;;;;13.60;99.90;;;;;;1870762;76;20287;-72
2021/09/05 07:27:01;;;;;;;;;;;13.60;99.90;;;;;;1870341;75;20149;-71
2021/09/05 07:29:28;;;;;;;;;;;13.60;99.90;;;;;;1863136;76;20228;-71
2021/09/05 07:31:55;;;;;;;;;;;13.70;99.90;;;;;;1865971;75;20203;-74
2021/09/05 07:34:22;;;;;;;;;;;13.70;99.90;;;;;;1867094;76;20248;-74
2021/09/05 07:36:49;;;;;;;;;;;13.80;99.90;;;;;;1860084;76;20430;-75
2021/09/05 07:39:15;;;;;;;;;;;13.70;99.90;;;;;;1852241;76;20197;-74
2021/09/05 07:41:42;;;;;;;;;;;13.70;99.90;;;;;;1859473;76;20380;-74
2021/09/05 07:44:09;;;;;;;;;;;13.70;99.90;;;;;;1853825;76;20166;-74
2021/09/05 07:46:37;;;;;;;;;;;13.70;99.90;;;;;;1857181;76;20175;-75
2021/09/05 07:49:03;;;;;;;;;;;13.80;99.90;;;;;;1861453;75;20198;-75
2021/09/05 07:51:30;;;;;;;;;;;13.80;99.90;;;;;;1860340;75;20213;-75
2021/09/05 07:53:57;;;;;;;;;;;13.90;99.90;;;;;;1862804;76;20168;-75
2021/09/05 07:56:24;;;;;;;;;;;13.90;99.90;;;;;;1870079;76;20451;-75
2021/09/05 07:58:51;;;;;;;;;;;13.90;99.90;;;;;;1851727;76;20122;-75
2021/09/05 08:01:17;;;;;;;;;;;13.90;99.90;;;;;;1880484;76;20484;-74
2021/09/05 08:03:44;;;;;;;;;;;13.90;99.90;;;;;;1867842;75;20453;-73
2021/09/05 08:06:11;;;;;;;;;;;14.00;99.90;;;;;;1850327;76;20173;-72
2021/09/05 08:08:38;;;;;;;;;;;14.10;99.90;;;;;;1876138;76;20241;-73
2021/09/05 08:11:08;;;;;;;;;;;14.00;99.90;;;;;;1856409;75;20119;-73
2021/09/05 08:13:35;;;;;;;;;;;14.00;99.90;;;;;;1868861;76;20290;-76
2021/09/05 08:16:02;;;;;;;;;;;14.00;99.90;;;;;;1876553;76;20167;-77
2021/09/05 08:18:30;;;;;;;;;;;14.00;99.90;;;;;;1859023;75;20135;-74
2021/09/05 08:20:58;;;;;;;;;;;14.00;99.90;;;;;;1872193;76;20187;-73
2021/09/05 08:23:25;;;;;;;;;;;14.00;99.90;;;;;;1868487;76;20168;-73
2021/09/05 08:25:52;;;;;;;;;;;14.00;99.90;;;;;;1864842;76;20120;-73
2021/09/05 08:28:18;;;;;;;;;;;14.00;99.90;;;;;;1860633;76;20475;-73
2021/09/05 08:30:47;;;;;;;;;;;14.10;99.90;;;;;;1872911;76;20163;-73
2021/09/05 08:33:16;;;;;;;;;;;14.10;99.90;;;;;;1865551;76;20152;-72
2021/09/05 08:35:42;;;;;;;;;;;14.10;99.90;;;;;;1878989;76;20205;-73
2021/09/05 08:38:09;;;;;;;;;;;14.10;99.90;;;;;;1853025;76;20166;-73
2021/09/05 08:40:42;;;;;;;;;;;14.20;99.90;;;;;;1858281;76;20644;-72
2021/09/05 08:43:10;;;;;;;;;;;14.20;99.90;;;;;;1867063;76;20148;-73
2021/09/05 08:45:37;;;;;;;;;;;14.30;99.90;;;;;;1869690;76;20193;-74
2021/09/05 08:48:05;;;;;;;;;;;14.30;99.90;;;;;;1869871;76;20122;-73
2021/09/05 08:50:33;;;;;;;;;;;14.40;99.90;;;;;;1878558;75;20128;-74
2021/09/05 08:53:00;;;;;;;;;;;14.40;99.90;;;;;;1884832;76;20097;-72
2021/09/05 08:55:27;;;;;;;;;;;14.40;99.90;;;;;;1881719;76;20185;-72
2021/09/05 08:57:54;;;;;;;;;;;14.60;99.90;;;;;;1869116;76;20124;-74
2021/09/05 09:00:21;;;;;;;;;;;14.50;99.90;;;;;;1855284;75;20177;-74
2021/09/05 09:02:49;;;;;;;;;;;14.50;99.90;;;;;;1870110;75;20173;-75
2021/09/05 09:05:17;;;;;;;;;;;14.60;99.90;;;;;;1850498;77;20386;-75
2021/09/05 09:07:46;;;;;;;;;;;14.70;99.90;;;;;;1849545;76;20208;-74
2021/09/05 09:10:13;;;;;;;;;;;14.60;99.90;;;;;;1869879;76;20367;-74
2021/09/05 09:12:41;;;;;;;;;;;14.60;99.90;;;;;;1867429;76;20482;-76
2021/09/05 09:15:18;;;;;;;;;;;14.60;99.90;;;;;;1866898;76;20194;-74
2021/09/05 09:17:47;;;;;;;;;;;14.70;99.90;;;;;;1861936;76;20187;-77
2021/09/05 09:20:14;;;;;;;;;;;14.80;99.90;;;;;;1863530;75;20216;-76
2021/09/05 09:22:40;;;;;;;;;;;15.00;99.90;;;;;;1852387;76;20316;-76
2021/09/05 09:25:09;;;;;;;;;;;14.90;99.90;;;;;;1866266;76;20556;-75
2021/09/05 09:27:36;;;;;;;;;;;15.00;99.90;;;;;;1856802;76;20203;-75
2021/09/05 09:30:04;;;;;;;;;;;15.10;99.90;;;;;;1877182;75;20427;-75
2021/09/05 09:32:32;;;;;;;;;;;15.30;99.90;;;;;;1859548;76;20228;-74
2021/09/05 09:35:00;;;;;;;;;;;15.50;99.90;;;;;;1893324;72;20147;-72
2021/09/05 09:37:27;;;;;;;;;;;15.60;99.90;;;;;;1885310;74;20211;-71
2021/09/05 09:39:56;;;;;;;;;;;15.80;99.90;;;;;;1920497;74;20180;-73
2021/09/05 09:42:30;;;;;;;;;;;15.90;99.90;;;;;;1895503;74;20254;-73
2021/09/05 09:44:57;;;;;;;;;;;16.10;99.90;;;;;;1885047;75;20441;-72
2021/09/05 09:47:24;;;;;;;;;;;16.10;99.90;;;;;;1896859;74;20488;-73
2021/09/05 09:49:51;;;;;;;;;;;16.20;99.90;;;;;;1896487;74;20162;-72
2021/09/05 09:52:18;;;;;;;;;;;16.30;99.90;;;;;;1900014;74;20191;-72
2021/09/05 09:54:45;;;;;;;;;;;16.60;99.90;;;;;;1883864;75;20206;-74
2021/09/05 09:57:12;;;;;;;;;;;16.70;99.90;;;;;;1881831;74;20159;-70
2021/09/05 09:59:39;;;;;;;;;;;16.90;99.90;;;;;;1885900;75;20432;-71
2021/09/05 10:02:06;;;;;;;;;;;17.10;99.90;;;;;;1880805;74;20179;-70
2021/09/05 10:04:33;;;;;;;;;;;17.20;99.90;;;;;;1883170;75;20152;-70
2021/09/05 10:07:01;;;;;;;;;;;17.20;99.90;;;;;;1882861;75;20400;-70
2021/09/05 10:09:29;;;;;;;;;;;17.20;99.90;;;;;;1882438;74;20406;-71
2021/09/05 10:11:55;;;;;;;;;;;17.50;99.90;;;;;;1884819;76;20395;-70
2021/09/05 10:14:23;;;;;;;;;;;17.70;99.90;;;;;;1883136;75;20183;-69
2021/09/05 10:16:50;;;;;;;;;;;17.80;99.90;;;;;;1878886;76;20201;-70
2021/09/05 10:19:17;;;;;;;;;;;18.00;99.90;;;;;;1883132;76;20184;-69
2021/09/05 10:21:44;;;;;;;;;;;18.00;99.90;;;;;;1884622;75;20112;-69
2021/09/05 10:24:15;;;;;;;;;;;18.20;99.90;;;;;;1886910;75;20198;-70
2021/09/05 10:27:02;;;;;;;;;;;18.20;99.90;;;;;;1880506;75;20158;-71
2021/09/05 10:29:29;;;;;;;;;;;18.30;99.90;;;;;;1884641;75;20153;-69
2021/09/05 10:31:55;;;;;;;;;;;18.50;99.90;;;;;;1885482;75;20207;-69
2021/09/05 10:34:35;;;;;;;;;;;18.60;99.90;;;;;;1879824;76;20124;-68
2021/09/05 10:37:06;;;;;;;;;;;18.60;99.90;;;;;;1882774;76;20148;-69
2021/09/05 10:39:33;;;;;;;;;;;18.70;99.90;;;;;;1878621;75;20629;-70
2021/09/05 10:42:00;;;;;;;;;;;18.80;99.90;;;;;;1877396;76;20210;-68
2021/09/05 10:44:27;;;;;;;;;;;18.90;99.90;;;;;;1881384;75;20128;-70
2021/09/05 10:46:55;;;;;;;;;;;18.70;99.90;;;;;;1883592;74;20203;-71
2021/09/05 10:49:38;;;;;;;;;;;18.80;99.90;;;;;;1877401;76;20168;-70
2021/09/05 10:52:06;;;;;;;;;;;18.90;99.90;;;;;;1899481;75;20205;-70
2021/09/05 10:54:32;;;;;;;;;;;19.20;99.90;;;;;;1890694;75;20215;-70
2021/09/05 10:57:00;;;;;;;;;;;19.20;99.90;;;;;;1881263;76;20164;-69
2021/09/05 10:59:29;;;;;;;;;;;19.30;99.90;;;;;;1882890;75;20128;-69
2021/09/05 11:01:57;;;;;;;;;;;19.40;99.90;;;;;;1883206;76;20488;-71
2021/09/05 11:04:28;;;;;;;;;;;19.50;99.90;;;;;;1879712;75;20167;-69
2021/09/05 11:07:03;;;;;;;;;;;19.60;99.90;;;;;;1900458;75;20395;-70
2021/09/05 11:09:31;;;;;;;;;;;19.70;99.90;;;;;;1875738;74;20177;-71
2021/09/05 11:11:59;;;;;;;;;;;19.70;99.90;;;;;;1881649;74;20246;-71
2021/09/05 11:14:46;;;;;;;;;;;19.90;99.90;;;;;;1899873;75;20200;-72
2021/09/05 11:17:09;;;;;;;;;;;19.80;99.90;;;;;;1885330;75;20164;-69
2021/09/05 11:19:44;;;;;;;;;;;19.90;99.90;;;;;;1889965;76;20171;-69
2021/09/05 11:22:14;;;;;;;;;;;19.90;99.90;;;;;;1880923;75;20499;-70
2021/09/05 11:24:41;;;;;;;;;;;20.10;99.90;;;;;;1889328;74;20224;-70
2021/09/05 11:27:09;;;;;;;;;;;20.20;99.90;;;;;;1881889;75;20160;-69
2021/09/05 11:29:36;;;;;;;;;;;20.20;99.90;;;;;;1882461;75;20175;-69
2021/09/05 11:32:05;;;;;;;;;;;20.10;99.90;;;;;;1890613;75;20174;-70
2021/09/05 11:34:32;;;;;;;;;;;20.20;99.90;;;;;;1879406;75;20230;-70
2021/09/05 11:36:59;;;;;;;;;;;20.30;99.90;;;;;;1880403;75;20179;-70
2021/09/05 11:39:26;;;;;;;;;;;20.50;99.90;;;;;;1885229;75;20407;-69
2021/09/05 11:41:53;;;;;;;;;;;20.60;99.90;;;;;;1889101;75;20183;-70
2021/09/05 11:44:27;;;;;;;;;;;20.60;99.90;;;;;;1879992;74;20187;-69
2021/09/05 11:47:10;;;;;;;;;;;20.60;99.90;;;;;;1881727;76;20198;-68
2021/09/05 11:49:39;;;;;;;;;;;20.70;99.90;;;;;;1883105;75;20496;-69
2021/09/05 11:52:05;;;;;;;;;;;20.80;99.90;;;;;;1878945;75;20172;-70
2021/09/05 11:54:32;;;;;;;;;;;21.00;99.90;;;;;;1885333;75;20241;-70
2021/09/05 11:56:59;;;;;;;;;;;20.90;99.90;;;;;;1878172;75;20270;-70
2021/09/05 11:59:26;;;;;;;;;;;21.00;99.90;;;;;;1879571;75;20127;-70
2021/09/05 12:01:53;;;;;;;;;;;21.20;99.90;;;;;;1880740;75;20559;-70
2021/09/05 12:04:20;;;;;;;;;;;21.50;99.90;;;;;;1880993;75;20129;-70
2021/09/05 12:06:47;;;;;;;;;;;21.50;99.90;;;;;;1878017;75;20210;-70
2021/09/05 12:09:16;;;;;;;;;;;21.70;99.90;;;;;;1875867;75;20213;-71
2021/09/05 12:11:55;;;;;;;;;;;21.70;99.90;;;;;;1876686;75;20231;-71
2021/09/05 12:14:33;;;;;;;;;;;21.80;99.90;;;;;;1881939;75;20120;-70
2021/09/05 12:17:00;;;;;;;;;;;22.10;99.90;;;;;;1877399;75;20156;-70
2021/09/05 12:19:27;;;;;;;;;;;22.50;99.90;;;;;;1874577;75;20170;-71
2021/09/05 12:21:58;;;;;;;;;;;22.40;99.90;;;;;;1876942;76;20216;-70
2021/09/05 12:24:25;;;;;;;;;;;22.70;99.90;;;;;;1876309;75;20203;-70
2021/09/05 12:26:51;;;;;;;;;;;22.80;99.90;;;;;;1875917;75;20170;-70
2021/09/05 12:29:30;;;;;;;;;;;23.00;99.90;;;;;;1876792;75;20169;-71
2021/09/05 12:32:00;;;;;;;;;;;23.10;99.90;;;;;;1883035;75;20124;-71
2021/09/05 12:34:38;;;;;;;;;;;23.20;99.90;;;;;;1874194;76;20425;-69
2021/09/05 12:37:11;;;;;;;;;;;23.40;99.90;;;;;;1882003;75;20157;-71
2021/09/05 12:39:39;;;;;;;;;;;23.50;99.90;;;;;;1873372;75;20400;-71
2021/09/05 12:42:09;;;;;;;;;;;23.60;99.90;;;;;;1879529;75;20125;-71
2021/09/05 12:44:41;;;;;;;;;;;23.60;99.90;;;;;;1877471;75;20312;-71
2021/09/05 12:47:07;;;;;;;;;;;23.50;99.90;;;;;;1876314;76;20124;-72
2021/09/05 12:49:41;;;;;;;;;;;23.60;99.90;;;;;;1879938;75;20164;-71
2021/09/05 12:52:08;;;;;;;;;;;23.70;99.90;;;;;;1876716;76;20128;-72
2021/09/05 12:54:38;;;;;;;;;;;23.80;99.90;;;;;;1880632;75;20164;-71
2021/09/05 12:57:04;;;;;;;;;;;23.90;99.90;;;;;;1878597;75;20455;-72
2021/09/05 12:59:31;;;;;;;;;;;23.90;99.90;;;;;;1874016;75;20199;-72
2021/09/05 13:01:58;;;;;;;;;;;24.10;99.90;;;;;;1890741;75;20165;-73
2021/09/05 13:04:24;;;;;;;;;;;24.10;99.90;;;;;;1875163;75;20215;-73
2021/09/05 13:06:51;;;;;;;;;;;24.20;99.90;;;;;;1889461;75;20192;-71
2021/09/05 13:09:18;;;;;;;;;;;24.50;99.90;;;;;;1882227;76;20179;-72
2021/09/05 13:11:45;;;;;;;;;;;24.60;99.90;;;;;;1876742;76;20225;-71
2021/09/05 13:14:12;;;;;;;;;;;24.60;99.90;;;;;;1876671;76;20171;-71
2021/09/05 13:16:38;;;;;;;;;;;24.80;99.90;;;;;;1876153;75;20167;-71
2021/09/05 13:19:05;;;;;;;;;;;25.00;99.90;;;;;;1876754;75;20449;-71
2021/09/05 13:21:32;;;;;;;;;;;24.90;99.90;;;;;;1877231;76;20387;-72
2021/09/05 13:23:59;;;;;;;;;;;24.90;99.90;;;;;;1877243;76;20256;-72
2021/09/05 13:26:26;;;;;;;;;;;24.90;99.90;;;;;;1877131;76;20492;-71
2021/09/05 13:28:53;;;;;;;;;;;25.20;99.90;;;;;;1877380;76;20129;-72
2021/09/05 13:31:21;;;;;;;;;;;25.10;99.90;;;;;;1877320;76;20124;-72
2021/09/05 13:33:48;;;;;;;;;;;25.20;99.60;;;;;;1892695;75;20186;-71
2021/09/05 13:36:15;;;;;;;;;;;25.50;97.50;;;;;;1898593;75;20185;-72
2021/09/05 13:38:42;;;;;;;;;;;25.40;98.30;;;;;;1895222;75;20217;-71
2021/09/05 13:41:09;;;;;;;;;;;25.30;97.60;;;;;;1886280;74;20152;-73
2021/09/05 13:43:36;;;;;;;;;;;25.40;97.50;;;;;;1883350;75;20171;-71
2021/09/05 13:46:02;;;;;;;;;;;25.60;95.50;;;;;;1878348;75;20129;-71
2021/09/05 13:48:29;;;;;;;;;;;25.90;95.00;;;;;;1886235;75;20238;-70
2021/09/05 13:50:56;;;;;;;;;;;25.90;92.80;;;;;;1894202;75;20232;-70
2021/09/05 13:53:23;;;;;;;;;;;25.90;93.20;;;;;;1877206;76;20132;-70
2021/09/05 13:55:50;;;;;;;;;;;25.60;94.20;;;;;;1877321;76;20164;-71
2021/09/05 13:58:16;;;;;;;;;;;25.70;93.60;;;;;;1875792;75;20457;-71
2021/09/05 14:00:43;;;;;;;;;;;26.00;91.00;;;;;;1890135;75;20213;-71
2021/09/05 14:03:11;;;;;;;;;;;26.00;93.40;;;;;;1895132;75;20505;-71
2021/09/05 14:05:38;;;;;;;;;;;26.20;93.20;;;;;;1884165;76;20432;-70
2021/09/05 14:08:05;;;;;;;;;;;26.20;92.50;;;;;;1884388;76;20192;-71
2021/09/05 14:10:31;;;;;;;;;;;26.40;91.90;;;;;;1884249;76;20156;-70
2021/09/05 14:12:58;;;;;;;;;;;26.30;93.10;;;;;;1884376;76;20199;-71
2021/09/05 14:15:25;;;;;;;;;;;26.40;93.50;;;;;;1879441;75;20175;-68
2021/09/05 14:17:52;;;;;;;;;;;26.40;91.80;;;;;;1901647;75;20380;-68